Mt Bomar Mars — 9HCM9 — position and weather

sailwx.info

Track history (hours):
 
Tides and Currents Weather Stations Pressure Air Temp Water Temp Dewpoint Dewpoint Depression Visibility Wind Speed Wind Dir Waves Ship Positions

Mt Bomar Mars

Last reported at 2014-Sep-17 21:22 UTC. Time now 2014-Sep-18 09:38 UTC.
Position N 40°48' E 014°19'.

Length 107 m; draft 5.1 m.

Type: Tanker. MMSI: 256784000.

Date/timePositionNaut miles runAvg speedWind from/ knotsBaromVisibWave heightAir tempDewpointWater temp
2014-Sep-17 21:22N 40°48' E 014°19'0 0.1
2014-Sep-17 20:22N 40°48' E 014°19'0 0.0
2014-Sep-17 19:31N 40°48' E 014°19'0 0.0
2014-Sep-17 18:31N 40°49' E 014°19'0 0.0
2014-Sep-17 17:28N 40°49' E 014°19'0 0.0
2014-Sep-17 16:31N 40°49' E 014°19'0 0.0
2014-Sep-17 15:31N 40°49' E 014°19'0 0.0
2014-Sep-17 14:31N 40°49' E 014°19'0 0.0
2014-Sep-17 13:31N 40°49' E 014°19'1 0.0
2014-Sep-15 09:33N 40°50' E 014°18'9 9.5
2014-Sep-15 08:33N 40°42' E 014°10'1212.1
2014-Sep-15 07:33N 40°36' E 013°57'1312.3
2014-Sep-15 06:28N 40°31' E 013°40'48611.6
2014-Sep-13 12:31N 37°59' E 003°44'1111.3
2014-Sep-13 11:33N 37°57' E 003°31'7111.9
2014-Sep-13 05:33N 37°47' E 002°01'1211.6
2014-Sep-13 04:33N 37°45' E 001°47'1211.6
2014-Sep-13 03:33N 37°44' E 001°32'4811.9
2014-Sep-12 23:32N 37°36' E 000°33'1211.7
2014-Sep-12 22:33N 37°34' E 000°18'1211.8
2014-Sep-12 21:33N 37°33' E 000°04'1211.8
2014-Sep-12 20:33N 37°31' W 000°11'1211.6
2014-Sep-12 19:33N 37°29' W 000°26'1211.8
2014-Sep-12 18:31N 37°29' W 000°41'1212.1
2014-Sep-12 17:33N 37°31' W 000°55'8 0.4
2014-Sep-11 18:31N 37°33' W 001°05'6 0.2
2014-Sep-10 08:31N 37°31' W 000°57'1212.8
2014-Sep-10 07:33N 37°32' W 000°42'11912.6
2014-Sep-09 22:06N 39°11' E 000°41'3212.6
2014-Sep-09 19:32N 39°40' E 000°58'1312.8
2014-Sep-09 18:33N 39°53' E 001°00'1312.7
2014-Sep-09 17:33N 40°06' E 001°02'1312.3
2014-Sep-09 16:31N 40°18' E 001°03'42 2.2
2014-Sep-08 21:20N 40°59' E 001°12'911.5
2014-Sep-08 20:33N 40°51' E 001°09'1711.2
2014-Sep-08 19:05N 40°35' E 001°05'611.0
2014-Sep-08 18:33N 40°29' E 001°04'1111.3
2014-Sep-08 17:33N 40°17' E 001°03'1111.1
2014-Sep-08 16:33N 40°06' E 001°02'1111.0
2014-Sep-08 15:33N 39°55' E 001°02'1111.0
2014-Sep-08 14:33N 39°44' E 001°01'3311.0
2014-Sep-08 11:32N 39°13' E 000°46'1511.3
2014-Sep-08 10:13N 38°60' E 000°38'711.2
2014-Sep-08 09:33N 38°53' E 000°34'1111.1
2014-Sep-08 08:33N 38°43' E 000°28'1111.4
2014-Sep-08 07:33N 38°33' E 000°21'1111.0
2014-Sep-08 06:33N 38°24' E 000°13'1311.1
2014-Sep-08 05:24N 38°13' E 000°04'1011.1
2014-Sep-08 04:32N 38°05' W 000°03'3311.0
2014-Sep-08 01:31N 37°38' W 000°27'  
Track history (hours):
 
Tides and Currents Weather Stations Pressure Air Temp Water Temp Dewpoint Dewpoint Depression Visibility Wind Speed Wind Dir Waves Ship Positions

Mt Bomar Mars

Last reported at 2014-Sep-17 21:22 UTC. Time now 2014-Sep-18 09:38 UTC.
Position N 40°48' E 014°19'.

Length 107 m; draft 5.1 m.

Type: Tanker. MMSI: 256784000.

Date/timePositionNaut miles runAvg speedWind from/ knotsBaromVisibWave heightAir tempDewpointWater temp
2014-Sep-17 21:22N 40°48' E 014°19'0 0.1
2014-Sep-17 20:22N 40°48' E 014°19'0 0.0
2014-Sep-17 19:31N 40°48' E 014°19'0 0.0
2014-Sep-17 18:31N 40°49' E 014°19'0 0.0
2014-Sep-17 17:28N 40°49' E 014°19'0 0.0
2014-Sep-17 16:31N 40°49' E 014°19'0 0.0
2014-Sep-17 15:31N 40°49' E 014°19'0 0.0
2014-Sep-17 14:31N 40°49' E 014°19'0 0.0
2014-Sep-17 13:31N 40°49' E 014°19'1 0.0
2014-Sep-15 09:33N 40°50' E 014°18'9 9.5
2014-Sep-15 08:33N 40°42' E 014°10'1212.1
2014-Sep-15 07:33N 40°36' E 013°57'1312.3
2014-Sep-15 06:28N 40°31' E 013°40'48611.6
2014-Sep-13 12:31N 37°59' E 003°44'1111.3
2014-Sep-13 11:33N 37°57' E 003°31'7111.9
2014-Sep-13 05:33N 37°47' E 002°01'1211.6
2014-Sep-13 04:33N 37°45' E 001°47'1211.6
2014-Sep-13 03:33N 37°44' E 001°32'4811.9
2014-Sep-12 23:32N 37°36' E 000°33'1211.7
2014-Sep-12 22:33N 37°34' E 000°18'1211.8
2014-Sep-12 21:33N 37°33' E 000°04'1211.8
2014-Sep-12 20:33N 37°31' W 000°11'1211.6
2014-Sep-12 19:33N 37°29' W 000°26'1211.8
2014-Sep-12 18:31N 37°29' W 000°41'1212.1
2014-Sep-12 17:33N 37°31' W 000°55'8 0.4
2014-Sep-11 18:31N 37°33' W 001°05'6 0.2
2014-Sep-10 08:31N 37°31' W 000°57'1212.8
2014-Sep-10 07:33N 37°32' W 000°42'11912.6
2014-Sep-09 22:06N 39°11' E 000°41'3212.6
2014-Sep-09 19:32N 39°40' E 000°58'1312.8
2014-Sep-09 18:33N 39°53' E 001°00'1312.7
2014-Sep-09 17:33N 40°06' E 001°02'1312.3
2014-Sep-09 16:31N 40°18' E 001°03'42 2.2
2014-Sep-08 21:20N 40°59' E 001°12'911.5
2014-Sep-08 20:33N 40°51' E 001°09'1711.2
2014-Sep-08 19:05N 40°35' E 001°05'611.0
2014-Sep-08 18:33N 40°29' E 001°04'1111.3
2014-Sep-08 17:33N 40°17' E 001°03'1111.1
2014-Sep-08 16:33N 40°06' E 001°02'1111.0
2014-Sep-08 15:33N 39°55' E 001°02'1111.0
2014-Sep-08 14:33N 39°44' E 001°01'3311.0
2014-Sep-08 11:32N 39°13' E 000°46'1511.3
2014-Sep-08 10:13N 38°60' E 000°38'711.2
2014-Sep-08 09:33N 38°53' E 000°34'1111.1
2014-Sep-08 08:33N 38°43' E 000°28'1111.4
2014-Sep-08 07:33N 38°33' E 000°21'1111.0
2014-Sep-08 06:33N 38°24' E 000°13'1311.1
2014-Sep-08 05:24N 38°13' E 000°04'1011.1
2014-Sep-08 04:32N 38°05' W 000°03'3311.0
2014-Sep-08 01:31N 37°38' W 000°27'  

Dump ship's entire track history